AirNav   Duncan Aviation - Near you to keep you flying
 
 994 users online  

KUWL New Castle Henry County Airport / Marlatt Field
New Castle, Indiana, USA

GOING TO NEW CASTLE?


FAA INFORMATION EFFECTIVE 03 NOVEMBER 2022

Location

FAA Identifier: UWL
Lat/Long: 39-52-36.2000N 085-19-31.0000W
39-52.603333N 085-19.516667W
39.8767222,-85.3252778
(estimated)
Elevation: 1090.2 ft. / 332.3 m (surveyed)
Variation: 06W (2020)
From city: 4 miles SE of NEW CASTLE, IN
Time zone: UTC -5 (UTC -4 during Daylight Saving Time)
Zip code: 47362

Airport Operations

Airport use: Open to the public
Activation date: 09/1971
Control tower: no
ARTCC: INDIANAPOLIS CENTER
FSS: TERRE HAUTE FLIGHT SERVICE STATION
NOTAMs facility: HUF (NOTAM-D service available)
Attendance: 0800-1800
FUEL AFT HR - 765-332-2969.
Wind indicator: lighted
Segmented circle: no
Lights: ACTVT REIL RWY 10 & 28; PAPI RWY 10 & 28; MIRL RWY 10/28 - CTAF. MIRL RWY 10/28 PRESET LOW INTST; INCR INTST - CTAF.
Beacon: white-green (lighted land airport)
Operates sunset to sunrise.

Airport Communications

CTAF/UNICOM: 123.05
INDIANAPOLIS APPROACH: 135.45
INDIANAPOLIS DEPARTURE: 135.45
WX AWOS-3 at CEV (14 nm SE): 118.325 (765-827-6649)
WX AWOS-3 at AID (19 nm NW): 128.55 (765-442-1245)

Nearby radio navigation aids

VOR radial/distance  VOR name  Freq  Var
MIEr175/21.9MUNCIE VOR/DME114.4003W
SHBr057/27.3SHELBYVILLE VOR/DME116.1501E

 
NDB name  Hdg/Dist  Freq  Var  ID
NEW CASTLEat field38506WUWL ..- .-- .-..
PNTHR308/10.822704WSQ ... --.-
VIDEO147/14.439403WAI .- ..
BATESVILLE359/32.025405WHLB .... .-.. -...
METROPOLITAN099/33.633803WUMP ..- -- .--.

Airport Services

Fuel available: 100LL JET-A
Parking: hangars and tiedowns
Airframe service: MINOR
Powerplant service: MINOR

Runway Information

Runway 10/28

Dimensions: 4201 x 75 ft. / 1280 x 23 m
Surface: asphalt, in good condition
Runway edge lights: medium intensity
RUNWAY 10  RUNWAY 28
Latitude: 39-52.606323N39-52.601465N
Longitude: 085-19.966247W085-19.068143W
Elevation: 1080.1 ft.1090.1 ft.
Traffic pattern: leftleft
Runway heading: 096 magnetic, 090 true276 magnetic, 270 true
Markings: nonprecision, in good conditionnonprecision, in good condition
Visual slope indicator: 2-light PAPI on left (3.00 degrees glide path)2-light PAPI on left (3.00 degrees glide path)
Runway end identifier lights: yesyes
Touchdown point: yes, no lightsyes, no lights
Obstructions: 10 ft. crops, 340 ft. from runway, 14:1 slope to clear10 ft. crops, 210 ft. from runway, 1:1 slope to clear

Airport Ownership and Management from official FAA records

Ownership: Publicly-owned
Owner: NEW CASTLE/HENRY COUNTY
2912 E. CO. RD. 400 S.
NEW CASTLE, IN 47362
Phone 765-529-7903
Manager: JOHN MARLATT
2912 E CO. RD 400 S
NEW CASTLE, IN 47362
Phone 765-529-7903
765-529-7909.

Airport Operational Statistics

Aircraft based on the field: 15
Single engine airplanes: 14
Helicopters: 1
    
Aircraft operations: avg 43/week *
80% local general aviation
16% transient general aviation
4% air taxi
* for 12-month period ending 31 December 2019

Additional Remarks

FOR CD CTC INDIANAPOLIS APCH AT 317-227-5743.

Instrument Procedures

NOTE: All procedures below are presented as PDF files. If you need a reader for these files, you should download the free Adobe Reader.

NOT FOR NAVIGATION. Please procure official charts for flight.
FAA instrument procedures published for use from 03 November 2022 at 0901Z to 01 December 2022 at 0900Z.

 
IAPs - Instrument Approach Procedures
RNAV (GPS) RWY 10   download (210KB)
RNAV (GPS) RWY 28   download (208KB)
NDB RWY 10   download (176KB)
NOTE: Special Take-Off Minimums/Departure Procedures apply   download (460KB)

Other nearby airports with instrument procedures:

KCEV - Mettel Field Airport (14 nm SE)
KAID - Anderson Municipal Airport-Darlington Field (19 nm NW)
KMIE - Delaware County Regional Airport (22 nm N)
KRID - Richmond Municipal Airport (23 nm E)
I22 - Randolph County Airport (25 nm NE)
 
Loc | Ops | Rwys | IFR | FBO | Links
Com | Nav | Svcs | Stats | Notes
Area around KUWL (New Castle Henry County Airport / Marlatt Field)
 
Road maps at: MapQuest Bing Google
 
Aerial photo
WARNING: Photo may not be current or correct
Aerial photo of KUWL (New Castle Henry County Airport / Marlatt Field)
Photo by Phil Brooks
Photo taken 30-Apr-2018
looking west.

Do you have a better or more recent aerial photo of New Castle Henry County Airport / Marlatt Field that you would like to share? If so, please send us your photo.

 
Sectional chart

 
Airport distance calculator
Flying to New Castle Henry County Airport / Marlatt Field? Find the distance to fly.

From to KUWL

Sunrise and sunset
Times for 28-Nov-2022
 Local
(UTC-5)
 Zulu
(UTC)
Morning civil twilight07:1212:12
Sunrise07:4212:42
Sunset17:1722:17
Evening civil twilight17:4722:47

Current date and time
Zulu (UTC)  29-Nov-2022 02:49:14
Local (UTC-5)  28-Nov-2022 21:49:14
 
METAR
KAID 
20nm NW 
290235Z AUTO 18005KT 10SM OVC025 06/03 A3002 RMK AO2 T00600034
KMIE 
22nm N 
290231Z 19007KT 9SM SCT011 OVC028 07/04 A3001 RMK AO2 T00720039
KRID 
23nm E 
290235Z AUTO 17005KT 7SM SCT013 SCT022 OVC029 04/04 A3005 RMK AO2
KMQJ 
26nm W 
290235Z AUTO 18005KT 7SM OVC023 06/06 A3002 RMK AO1
KGEZ 
28nm SW 
290153Z AUTO 18008KT 7SM OVC026 08/05 A3002 RMK AO2 SLP168 T00780050
KHLB 
32nm S 
290235Z AUTO 17005KT 9SM OVC022 06/05 A3003 RMK A01
KUMP 
33nm W 
290235Z AUTO 19006KT 10SM OVC023 07/06 A3002 RMK AO2 T00720060
KOXD 
34nm SE 
290235Z AUTO 00000KT 10SM SCT018 OVC026 08/06 A3004 RMK AO2 T00830060
KHFY 
38nm SW 
290235Z AUTO 18005KT 10SM OVC025 07/06 A3003 RMK AO2 T00720058
TAF
KIND 
45nm W 
290226Z 2902/3006 19007KT P6SM OVC025 FM291100 17006KT P6SM SCT025 BKN060 FM291500 16012G21KT P6SM BKN100 FM291800 17015G30KT P6SM BKN100
NOTAMs
Click for the latest NOTAMs
NOTAMs are issued by the DoD/FAA and will open in a separate window not controlled by AirNav.

 

 
 

FBO, Fuel Providers, and Aircraft Ground Support

  
 Business Name 
 
 Contact 
 
 Services / Description 
 
Fuel Prices
 
Comments
  
Sky Castle Aviation 765-529-7903
no information available

If you are affiliated with Sky Castle Aviation and would like to show here your services, contact info, web link, logo, and more, click here
100LL Jet A
FS $5.90 $5.45 
 Updated 21-Nov-2022
 
   write
FS=Full service
Update Fuel Prices
 

Would you like to see your business listed on this page?

 If your business provides an interesting product or service to pilots, flight crews, aircraft, or users of the New Castle Henry County Airport / Marlatt Field, you should consider listing it here.  To start the listing process, click on the button below
 
Add a business
 

Other Pages about New Castle Henry County Airport / Marlatt Field

Update a link
 
Copyright © AirNav, LLC. All rights reserved. Privacy Policy  Contact